createdAt,value
2023-04-10T00:00:15.073Z,500.00
2023-04-10T00:01:15.089Z,500.00
2023-04-10T00:02:15.182Z,500.00
2023-04-10T00:03:15.394Z,422.00
2023-04-10T00:04:15.480Z,400.00
2023-04-10T00:05:15.320Z,400.00
2023-04-10T00:06:15.231Z,400.00
2023-04-10T00:07:15.256Z,400.00
2023-04-10T00:08:15.303Z,400.00
2023-04-10T00:09:15.347Z,409.00
2023-04-10T00:10:15.438Z,434.00
2023-04-10T00:11:15.421Z,467.00
2023-04-10T00:12:15.472Z,500.00
2023-04-10T00:13:15.481Z,500.00
2023-04-10T00:14:15.517Z,500.00
2023-04-10T00:15:15.549Z,500.00
2023-04-10T00:16:15.627Z,500.00
2023-04-10T00:17:15.631Z,500.00
2023-04-10T00:18:16.634Z,500.00
2023-04-10T00:19:15.716Z,500.00
2023-04-10T00:20:15.759Z,500.00
2023-04-10T00:21:15.849Z,500.00
2023-04-10T00:22:15.841Z,500.00
2023-04-10T00:23:15.893Z,500.00
2023-04-10T00:24:15.922Z,500.00
2023-04-10T00:25:16.000Z,501.00
2023-04-10T00:26:16.017Z,500.00
2023-04-10T00:27:16.057Z,501.00
2023-04-10T00:28:16.136Z,500.00
2023-04-10T00:29:16.139Z,500.00
2023-04-10T00:30:16.176Z,500.00
2023-04-10T00:31:16.221Z,501.00
2023-04-10T00:32:16.306Z,502.00
2023-04-10T00:33:16.317Z,500.00
2023-04-10T00:34:16.359Z,501.00
2023-04-10T00:35:16.404Z,502.00
2023-04-10T00:36:16.508Z,502.00
2023-04-10T00:37:16.502Z,501.00
2023-04-10T00:38:16.554Z,500.00
2023-04-10T00:39:16.601Z,501.00
2023-04-10T00:40:16.639Z,501.00
2023-04-10T00:41:16.693Z,504.00
2023-04-10T00:42:16.742Z,503.00
2023-04-10T00:43:16.799Z,500.00
2023-04-10T00:44:16.874Z,500.00
2023-04-10T00:45:16.899Z,504.00
2023-04-10T00:46:16.995Z,504.00
2023-04-10T00:47:17.015Z,500.00
2023-04-10T00:48:17.051Z,501.00
2023-04-10T00:49:17.104Z,500.00
2023-04-10T00:50:17.175Z,500.00
2023-04-10T00:51:17.210Z,501.00
2023-04-10T00:52:17.269Z,501.00
2023-04-10T00:53:17.324Z,500.00
2023-04-10T00:54:17.361Z,502.00
2023-04-10T00:55:17.420Z,500.00
2023-04-10T00:56:17.453Z,501.00
2023-04-10T00:57:17.516Z,502.00
2023-04-10T00:58:17.543Z,502.00
2023-04-10T00:59:17.597Z,500.00
2023-04-10T01:00:17.674Z,501.00
2023-04-10T01:01:17.756Z,503.00
2023-04-10T01:02:17.806Z,500.00
2023-04-10T01:03:18.007Z,503.00
2023-04-10T01:04:18.006Z,500.00
2023-04-10T01:05:17.913Z,502.00
2023-04-10T01:06:17.948Z,501.00
2023-04-10T01:07:17.999Z,501.00
2023-04-10T01:08:18.060Z,503.00
2023-04-10T01:09:18.097Z,504.00
2023-04-10T01:10:18.135Z,500.00
2023-04-10T01:11:18.184Z,504.00
2023-04-10T01:12:18.235Z,501.00
2023-04-10T01:13:18.285Z,500.00
2023-04-10T01:14:18.335Z,504.00
2023-04-10T01:15:18.414Z,501.00
2023-04-10T01:16:18.527Z,500.00
2023-04-10T01:17:18.496Z,502.00
2023-04-10T01:18:18.552Z,501.00
2023-04-10T01:19:18.601Z,500.00
2023-04-10T01:20:18.656Z,502.00
2023-04-10T01:21:18.706Z,501.00
2023-04-10T01:22:18.745Z,502.00
2023-04-10T01:23:18.812Z,500.00
2023-04-10T01:24:18.890Z,503.00
2023-04-10T01:25:18.931Z,501.00
2023-04-10T01:26:18.990Z,501.00
2023-04-10T01:27:19.055Z,502.00
2023-04-10T01:28:19.110Z,500.00
2023-04-10T01:29:19.157Z,504.00
2023-04-10T01:30:19.216Z,503.00
2023-04-10T01:31:19.338Z,504.00
2023-04-10T01:32:19.366Z,502.00
2023-04-10T01:33:19.388Z,501.00
2023-04-10T01:34:19.459Z,501.00
2023-04-10T01:35:19.512Z,501.00
2023-04-10T01:36:19.553Z,501.00
2023-04-10T01:37:19.605Z,500.00
2023-04-10T01:38:19.637Z,502.00
2023-04-10T01:39:19.695Z,500.00
2023-04-10T01:40:19.751Z,502.00
2023-04-10T01:41:19.827Z,501.00
2023-04-10T01:42:19.866Z,501.00
2023-04-10T01:43:19.924Z,500.00
2023-04-10T01:44:19.980Z,501.00
2023-04-10T01:45:20.061Z,503.00
2023-04-10T01:46:20.135Z,503.00
2023-04-10T01:47:20.160Z,500.00
2023-04-10T01:48:20.236Z,502.00
2023-04-10T01:49:20.279Z,503.00
2023-04-10T01:50:20.346Z,502.00
2023-04-10T01:51:20.376Z,505.00
2023-04-10T01:52:20.424Z,504.00
2023-04-10T01:53:20.508Z,505.00
2023-04-10T01:54:20.549Z,502.00
2023-04-10T01:55:20.619Z,501.00
2023-04-10T01:56:20.658Z,500.00
2023-04-10T01:57:20.724Z,504.00
2023-04-10T01:58:20.799Z,505.00
2023-04-10T01:59:20.827Z,502.00
2023-04-10T02:00:20.908Z,500.00
2023-04-10T02:01:29.241Z,504.00
2023-04-10T02:02:20.988Z,505.00
2023-04-10T02:03:21.107Z,505.00
2023-04-10T02:04:21.026Z,506.00
2023-04-10T02:05:20.907Z,506.00
2023-04-10T02:06:20.881Z,502.00
2023-04-10T02:07:20.872Z,503.00
2023-04-10T02:08:20.869Z,501.00
2023-04-10T02:09:20.872Z,500.00
2023-04-10T02:10:20.864Z,504.00
2023-04-10T02:11:20.848Z,501.00
2023-04-10T02:12:20.842Z,504.00
2023-04-10T02:13:20.845Z,502.00
2023-04-10T02:14:20.821Z,502.00
2023-04-10T02:15:20.818Z,504.00
2023-04-10T02:16:20.876Z,506.00
2023-04-10T02:17:20.852Z,504.00
2023-04-10T02:18:20.805Z,500.00
2023-04-10T02:19:20.794Z,509.00
2023-04-10T02:20:20.822Z,505.00
2023-04-10T02:21:20.799Z,504.00
2023-04-10T02:22:20.788Z,505.00
2023-04-10T02:23:20.832Z,506.00
2023-04-10T02:24:20.874Z,504.00
2023-04-10T02:25:20.932Z,502.00
2023-04-10T02:26:20.977Z,501.00
2023-04-10T02:27:21.032Z,505.00
2023-04-10T02:28:21.079Z,508.00
2023-04-10T02:29:21.129Z,503.00
2023-04-10T02:30:21.162Z,509.00
2023-04-10T02:31:21.256Z,507.00
2023-04-10T02:32:21.290Z,502.00
2023-04-10T02:33:21.334Z,509.00
2023-04-10T02:34:21.387Z,506.00
2023-04-10T02:35:21.440Z,504.00
2023-04-10T02:36:21.559Z,505.00
2023-04-10T02:37:21.573Z,503.00
2023-04-10T02:38:21.625Z,504.00
2023-04-10T02:39:21.705Z,505.00
2023-04-10T02:40:21.748Z,501.00
2023-04-10T02:41:21.805Z,501.00
2023-04-10T02:42:21.866Z,504.00
2023-04-10T02:43:21.922Z,506.00
2023-04-10T02:44:21.988Z,502.00
2023-04-10T02:45:22.036Z,500.00
2023-04-10T02:46:22.100Z,500.00
2023-04-10T02:47:22.190Z,500.00
2023-04-10T02:48:22.229Z,500.00
2023-04-10T02:49:22.292Z,500.00
2023-04-10T02:50:22.348Z,502.00
2023-04-10T02:51:22.406Z,504.00
2023-04-10T02:52:22.503Z,503.00
2023-04-10T02:53:22.535Z,501.00
2023-04-10T02:54:22.593Z,501.00
2023-04-10T02:55:22.670Z,501.00
2023-04-10T02:56:22.718Z,503.00
2023-04-10T02:57:22.785Z,502.00
2023-04-10T02:58:22.863Z,501.00
2023-04-10T02:59:22.913Z,501.00
2023-04-10T03:00:22.973Z,501.00
2023-04-10T03:01:23.059Z,502.00
2023-04-10T03:02:23.174Z,504.00
2023-04-10T03:03:23.372Z,502.00
2023-04-10T03:04:23.318Z,503.00
2023-04-10T03:05:23.229Z,503.00
2023-04-10T03:06:23.282Z,500.00
2023-04-10T03:07:23.335Z,500.00
2023-04-10T03:08:23.425Z,501.00
2023-04-10T03:09:23.460Z,501.00
2023-04-10T03:10:23.533Z,505.00
2023-04-10T03:11:23.589Z,503.00
2023-04-10T03:12:23.661Z,500.00
2023-04-10T03:13:23.711Z,502.00
2023-04-10T03:14:23.785Z,501.00
2023-04-10T03:15:23.834Z,501.00
2023-04-10T03:16:23.971Z,503.00
2023-04-10T03:17:23.918Z,506.00
2023-04-10T03:18:23.975Z,503.00
2023-04-10T03:19:24.029Z,502.00
2023-04-10T03:20:24.095Z,501.00
2023-04-10T03:21:24.160Z,503.00
2023-04-10T03:22:25.207Z,503.00
2023-04-10T03:23:24.293Z,504.00
2023-04-10T03:24:24.387Z,503.00
2023-04-10T03:25:24.428Z,500.00
2023-04-10T03:26:24.477Z,501.00
2023-04-10T03:27:24.538Z,500.00
2023-04-10T03:28:24.586Z,501.00
2023-04-10T03:29:24.657Z,501.00
2023-04-10T03:30:24.700Z,505.00
2023-04-10T03:31:24.789Z,503.00
2023-04-10T03:32:24.820Z,502.00
2023-04-10T03:33:24.963Z,501.00
2023-04-10T03:34:24.927Z,502.00
2023-04-10T03:35:24.980Z,503.00
2023-04-10T03:36:25.042Z,503.00
2023-04-10T03:37:25.112Z,500.00
2023-04-10T03:38:25.173Z,500.00
2023-04-10T03:39:25.226Z,500.00
2023-04-10T03:40:25.317Z,500.00
2023-04-10T03:41:25.618Z,506.00
2023-04-10T03:42:25.394Z,502.00
2023-04-10T03:43:25.456Z,502.00
2023-04-10T03:44:25.505Z,502.00
2023-04-10T03:45:25.565Z,500.00
2023-04-10T03:46:25.645Z,500.00
2023-04-10T03:47:25.709Z,501.00
2023-04-10T03:48:25.724Z,504.00
2023-04-10T03:49:25.767Z,503.00
2023-04-10T03:50:25.835Z,501.00
2023-04-10T03:51:25.899Z,505.00
2023-04-10T03:52:25.955Z,504.00
2023-04-10T03:53:26.024Z,502.00
2023-04-10T03:54:26.048Z,501.00
2023-04-10T03:55:26.078Z,500.00
2023-04-10T03:56:26.181Z,504.00
2023-04-10T03:57:26.187Z,502.00
2023-04-10T03:58:26.268Z,503.00
2023-04-10T03:59:37.387Z,501.00
2023-04-10T04:00:26.309Z,501.00
2023-04-10T04:01:26.315Z,502.00
2023-04-10T04:02:26.522Z,503.00
2023-04-10T04:03:26.480Z,502.00
2023-04-10T04:04:26.393Z,499.00
2023-04-10T04:05:26.237Z,502.00
2023-04-10T04:06:26.220Z,501.00
2023-04-10T04:07:26.206Z,502.00
2023-04-10T04:08:26.199Z,502.00
2023-04-10T04:09:26.205Z,504.00
2023-04-10T04:10:26.193Z,503.00
2023-04-10T04:11:26.178Z,504.00
2023-04-10T04:12:26.192Z,502.00
2023-04-10T04:13:26.157Z,502.00
2023-04-10T04:14:26.149Z,504.00
2023-04-10T04:15:26.147Z,503.00
2023-04-10T04:16:26.154Z,504.00
2023-04-10T04:17:26.174Z,510.00
2023-04-10T04:18:26.120Z,503.00
2023-04-10T04:19:26.126Z,504.00
2023-04-10T04:20:26.124Z,507.00
2023-04-10T04:21:26.116Z,506.00
2023-04-10T04:22:26.142Z,506.00
2023-04-10T04:23:26.227Z,507.00
2023-04-10T04:24:26.261Z,508.00
2023-04-10T04:25:26.322Z,508.00
2023-04-10T04:26:26.394Z,509.00
2023-04-10T04:27:26.439Z,504.00
2023-04-10T04:28:27.496Z,508.00
2023-04-10T04:29:26.449Z,508.00
2023-04-10T04:30:26.461Z,513.00
2023-04-10T04:31:26.469Z,513.00
2023-04-10T04:32:26.537Z,511.00
2023-04-10T04:33:26.408Z,511.00
2023-04-10T04:34:26.413Z,507.00
2023-04-10T04:35:26.386Z,510.00
2023-04-10T04:36:26.379Z,511.00
2023-04-10T04:37:26.377Z,509.00
2023-04-10T04:38:26.369Z,512.00
2023-04-10T04:39:26.347Z,509.00
2023-04-10T04:40:26.358Z,509.00
2023-04-10T04:41:26.329Z,508.00
2023-04-10T04:42:26.326Z,508.00
2023-04-10T04:43:26.315Z,510.00
2023-04-10T04:44:26.328Z,509.00
2023-04-10T04:45:26.302Z,510.00
2023-04-10T04:46:26.434Z,513.00
2023-04-10T04:47:26.340Z,511.00
2023-04-10T04:48:26.261Z,510.00
2023-04-10T04:49:26.256Z,509.00
2023-04-10T04:50:26.244Z,513.00
2023-04-10T04:51:26.245Z,511.00
2023-04-10T04:52:26.244Z,509.00
2023-04-10T04:53:26.308Z,511.00
2023-04-10T04:54:26.359Z,511.00
2023-04-10T04:55:26.409Z,512.00
2023-04-10T04:56:26.472Z,511.00
2023-04-10T04:57:26.522Z,510.00
2023-04-10T04:58:26.581Z,512.00
2023-04-10T04:59:26.637Z,510.00
2023-04-10T05:00:26.714Z,509.00
2023-04-10T05:01:26.832Z,511.00
2023-04-10T05:02:26.929Z,513.00
2023-04-10T05:03:26.959Z,506.00
2023-04-10T05:04:27.066Z,510.00
2023-04-10T05:05:26.984Z,512.00
2023-04-10T05:06:27.028Z,509.00
2023-04-10T05:07:27.084Z,509.00
2023-04-10T05:08:27.135Z,510.00
2023-04-10T05:09:27.177Z,512.00
2023-04-10T05:10:27.237Z,510.00
2023-04-10T05:11:27.307Z,507.00
2023-04-10T05:12:27.345Z,509.00
2023-04-10T05:13:27.447Z,510.00
2023-04-10T05:14:27.487Z,508.00
2023-04-10T05:15:27.567Z,510.00
2023-04-10T05:16:27.646Z,512.00
2023-04-10T05:17:27.696Z,508.00
2023-04-10T05:18:27.794Z,509.00
2023-04-10T05:19:27.814Z,511.00
2023-04-10T05:20:27.876Z,511.00
2023-04-10T05:21:27.955Z,511.00
2023-04-10T05:22:28.008Z,513.00
2023-04-10T05:23:28.077Z,511.00
2023-04-10T05:24:28.143Z,513.00
2023-04-10T05:25:28.206Z,511.00
2023-04-10T05:26:28.259Z,513.00
2023-04-10T05:27:28.327Z,512.00
2023-04-10T05:28:28.371Z,510.00
2023-04-10T05:29:28.418Z,510.00
2023-04-10T05:30:28.457Z,512.00
2023-04-10T05:31:28.578Z,512.00
2023-04-10T05:32:28.626Z,512.00
2023-04-10T05:33:28.655Z,511.00
2023-04-10T05:34:28.711Z,513.00
2023-04-10T05:35:28.796Z,510.00
2023-04-10T05:36:28.828Z,510.00
2023-04-10T05:37:28.910Z,510.00
2023-04-10T05:38:28.942Z,510.00
2023-04-10T05:39:29.000Z,509.00
2023-04-10T05:40:29.059Z,508.00
2023-04-10T05:41:29.129Z,507.00
2023-04-10T05:42:29.194Z,508.00
2023-04-10T05:43:29.249Z,510.00
2023-04-10T05:44:29.310Z,509.00
2023-04-10T05:45:29.366Z,508.00
2023-04-10T05:46:29.486Z,508.00
2023-04-10T05:47:29.549Z,510.00
2023-04-10T05:48:29.581Z,508.00
2023-04-10T05:49:29.611Z,508.00
2023-04-10T05:50:30.670Z,509.00
2023-04-10T05:51:29.732Z,510.00
2023-04-10T05:52:29.795Z,509.00
2023-04-10T05:53:29.854Z,509.00
2023-04-10T05:54:29.916Z,511.00
2023-04-10T05:55:29.949Z,508.00
2023-04-10T05:56:30.019Z,510.00
2023-04-10T05:57:30.069Z,509.00
2023-04-10T05:58:30.129Z,509.00
2023-04-10T05:59:30.180Z,511.00
2023-04-10T06:00:30.325Z,511.00
2023-04-10T06:01:30.297Z,511.00
2023-04-10T06:02:30.527Z,509.00
2023-04-10T06:03:30.604Z,510.00
2023-04-10T06:04:30.674Z,511.00
2023-04-10T06:05:30.569Z,510.00
2023-04-10T06:06:30.571Z,510.00
2023-04-10T06:07:30.621Z,509.00
2023-04-10T06:08:30.675Z,510.00
2023-04-10T06:09:30.753Z,513.00
2023-04-10T06:10:30.769Z,514.00
2023-04-10T06:11:30.824Z,509.00
2023-04-10T06:12:30.887Z,509.00
2023-04-10T06:13:30.937Z,509.00
2023-04-10T06:14:31.007Z,510.00
2023-04-10T06:15:31.069Z,508.00
2023-04-10T06:16:31.189Z,507.00
2023-04-10T06:17:31.205Z,507.00
2023-04-10T06:18:31.229Z,506.00
2023-04-10T06:19:31.296Z,507.00
2023-04-10T06:20:31.382Z,507.00
2023-04-10T06:21:31.407Z,506.00
2023-04-10T06:22:31.461Z,506.00
2023-04-10T06:23:31.506Z,504.00
2023-04-10T06:24:31.567Z,503.00
2023-04-10T06:25:31.636Z,503.00
2023-04-10T06:26:31.687Z,503.00
2023-04-10T06:27:31.757Z,503.00
2023-04-10T06:28:31.824Z,500.00
2023-04-10T06:29:31.869Z,502.00
2023-04-10T06:30:31.931Z,504.00
2023-04-10T06:31:32.075Z,502.00
2023-04-10T06:32:32.129Z,501.00
2023-04-10T06:33:32.103Z,502.00
2023-04-10T06:34:32.151Z,501.00
2023-04-10T06:35:32.206Z,501.00
2023-04-10T06:36:32.276Z,504.00
2023-04-10T06:37:32.315Z,504.00
2023-04-10T06:38:32.383Z,503.00
2023-04-10T06:39:32.427Z,500.00
2023-04-10T06:40:32.493Z,502.00
2023-04-10T06:41:32.557Z,501.00
2023-04-10T06:42:32.621Z,504.00
2023-04-10T06:43:32.636Z,501.00
2023-04-10T06:44:32.692Z,505.00
2023-04-10T06:45:32.764Z,503.00
2023-04-10T06:46:32.822Z,502.00
2023-04-10T06:47:32.910Z,501.00
2023-04-10T06:48:32.944Z,504.00
2023-04-10T06:49:33.002Z,505.00
2023-04-10T06:50:33.543Z,503.00
2023-04-10T06:51:33.117Z,504.00
2023-04-10T06:52:33.210Z,507.00
2023-04-10T06:53:33.232Z,505.00
2023-04-10T06:54:33.294Z,503.00
2023-04-10T06:55:33.352Z,505.00
2023-04-10T06:56:33.417Z,506.00
2023-04-10T06:57:33.465Z,503.00
2023-04-10T06:58:33.533Z,506.00
2023-04-10T06:59:33.584Z,504.00
2023-04-10T07:00:33.666Z,501.00
2023-04-10T07:01:33.773Z,500.00
2023-04-10T07:02:33.762Z,500.00
2023-04-10T07:03:33.917Z,502.00
2023-04-10T07:04:33.882Z,501.00
2023-04-10T07:05:33.930Z,501.00
2023-04-10T07:06:33.998Z,502.00
2023-04-10T07:07:34.041Z,502.00
2023-04-10T07:08:34.132Z,503.00
2023-04-10T07:09:34.165Z,504.00
2023-04-10T07:10:34.225Z,504.00
2023-04-10T07:11:34.289Z,501.00
2023-04-10T07:12:34.356Z,502.00
2023-04-10T07:13:34.411Z,501.00
2023-04-10T07:14:35.297Z,503.00
2023-04-10T07:15:34.529Z,503.00
2023-04-10T07:16:34.624Z,501.00
2023-04-10T07:17:34.727Z,502.00
2023-04-10T07:18:34.721Z,501.00
2023-04-10T07:19:34.776Z,503.00
2023-04-10T07:20:34.829Z,501.00
2023-04-10T07:21:34.892Z,505.00
2023-04-10T07:22:34.954Z,503.00
2023-04-10T07:23:35.010Z,500.00
2023-04-10T07:24:35.091Z,500.00
2023-04-10T07:25:35.126Z,501.00
2023-04-10T07:26:35.160Z,500.00
2023-04-10T07:27:35.212Z,502.00
2023-04-10T07:28:35.276Z,500.00
2023-04-10T07:29:35.337Z,501.00
2023-04-10T07:30:35.408Z,501.00
2023-04-10T07:31:35.571Z,503.00
2023-04-10T07:32:35.708Z,503.00
2023-04-10T07:33:35.594Z,502.00
2023-04-10T07:34:35.630Z,503.00
2023-04-10T07:35:35.714Z,506.00
2023-04-10T07:36:35.757Z,503.00
2023-04-10T07:37:35.822Z,502.00
2023-04-10T07:38:35.880Z,504.00
2023-04-10T07:39:35.934Z,503.00
2023-04-10T07:40:36.019Z,504.00
2023-04-10T07:41:36.057Z,502.00
2023-04-10T07:42:36.106Z,503.00
2023-04-10T07:43:36.175Z,502.00
2023-04-10T07:44:36.243Z,504.00
2023-04-10T07:45:36.362Z,501.00
2023-04-10T07:46:36.369Z,505.00
2023-04-10T07:47:36.481Z,504.00
2023-04-10T07:48:36.504Z,503.00
2023-04-10T07:49:36.573Z,503.00
2023-04-10T07:50:36.624Z,507.00
2023-04-10T07:51:36.683Z,504.00
2023-04-10T07:52:36.755Z,503.00
2023-04-10T07:53:36.822Z,505.00
2023-04-10T07:54:36.889Z,505.00
2023-04-10T07:55:36.936Z,504.00
2023-04-10T07:56:37.029Z,506.00
2023-04-10T07:57:37.058Z,506.00
2023-04-10T07:58:37.114Z,507.00
2023-04-10T07:59:37.171Z,506.00
2023-04-10T08:00:37.234Z,505.00
2023-04-10T08:01:37.321Z,505.00
2023-04-10T08:02:37.562Z,506.00
2023-04-10T08:03:37.620Z,505.00
2023-04-10T08:04:37.636Z,504.00
2023-04-10T08:05:37.524Z,504.00
2023-04-10T08:06:37.589Z,504.00
2023-04-10T08:07:37.636Z,504.00
2023-04-10T08:08:37.701Z,502.00
2023-04-10T08:09:37.765Z,503.00
2023-04-10T08:10:37.814Z,503.00
2023-04-10T08:11:38.691Z,501.00
2023-04-10T08:12:37.952Z,501.00
2023-04-10T08:13:37.988Z,503.00
2023-04-10T08:14:38.053Z,500.00
2023-04-10T08:15:38.094Z,501.00
2023-04-10T08:16:38.177Z,501.00
2023-04-10T08:17:38.207Z,501.00
2023-04-10T08:18:38.257Z,503.00
2023-04-10T08:19:38.304Z,504.00
2023-04-10T08:20:38.363Z,503.00
2023-04-10T08:21:38.416Z,503.00
2023-04-10T08:22:38.482Z,506.00
2023-04-10T08:23:38.530Z,504.00
2023-04-10T08:24:38.583Z,505.00
2023-04-10T08:25:38.645Z,503.00
2023-04-10T08:26:38.711Z,504.00
2023-04-10T08:27:38.758Z,505.00
2023-04-10T08:28:38.849Z,504.00
2023-04-10T08:29:38.875Z,504.00
2023-04-10T08:30:39.090Z,504.00
2023-04-10T08:31:38.986Z,503.00
2023-04-10T08:32:39.058Z,506.00
2023-04-10T08:33:39.099Z,505.00
2023-04-10T08:34:39.156Z,503.00
2023-04-10T08:35:39.238Z,506.00
2023-04-10T08:36:39.275Z,504.00
2023-04-10T08:37:39.325Z,504.00
2023-04-10T08:38:39.374Z,506.00
2023-04-10T08:39:39.492Z,504.00
2023-04-10T08:40:39.496Z,501.00
2023-04-10T08:41:39.555Z,505.00
2023-04-10T08:42:39.612Z,504.00
2023-04-10T08:43:39.670Z,508.00
2023-04-10T08:44:39.752Z,504.00
2023-04-10T08:45:39.801Z,504.00
2023-04-10T08:46:39.993Z,503.00
2023-04-10T08:47:39.977Z,505.00
2023-04-10T08:48:39.951Z,502.00
2023-04-10T08:49:40.011Z,501.00
2023-04-10T08:50:40.064Z,504.00
2023-04-10T08:51:40.107Z,504.00
2023-04-10T08:52:40.172Z,500.00
2023-04-10T08:53:40.256Z,502.00
2023-04-10T08:54:40.288Z,501.00
2023-04-10T08:55:40.337Z,501.00
2023-04-10T08:56:40.397Z,502.00
2023-04-10T08:57:43.026Z,500.00
2023-04-10T08:58:40.462Z,501.00
2023-04-10T08:59:40.460Z,502.00
2023-04-10T09:00:40.493Z,503.00
2023-04-10T09:01:39.598Z,505.00
2023-04-10T09:02:42.409Z,503.00
2023-04-10T09:03:40.910Z,509.00
2023-04-10T09:04:40.687Z,512.00
2023-04-10T09:05:40.466Z,506.00
2023-04-10T09:06:40.468Z,504.00
2023-04-10T09:07:40.465Z,502.00
2023-04-10T09:08:40.469Z,504.00
2023-04-10T09:09:40.483Z,501.00
2023-04-10T09:10:40.479Z,502.00
2023-04-10T09:11:40.487Z,503.00
2023-04-10T09:12:40.480Z,501.00
2023-04-10T09:13:40.460Z,504.00
2023-04-10T09:14:40.459Z,503.00
2023-04-10T09:15:40.486Z,503.00
2023-04-10T09:16:40.486Z,502.00
2023-04-10T09:17:40.511Z,503.00
2023-04-10T09:18:40.463Z,501.00
2023-04-10T09:19:40.470Z,501.00
2023-04-10T09:20:40.462Z,501.00
2023-04-10T09:21:40.481Z,502.00
2023-04-10T09:22:40.496Z,500.00
2023-04-10T09:23:40.555Z,501.00
2023-04-10T09:24:40.594Z,503.00
2023-04-10T09:25:40.640Z,506.00
2023-04-10T09:26:40.688Z,503.00
2023-04-10T09:27:40.741Z,503.00
2023-04-10T09:28:40.789Z,502.00
2023-04-10T09:29:40.832Z,502.00
2023-04-10T09:30:40.880Z,503.00
2023-04-10T09:31:40.966Z,503.00
2023-04-10T09:32:41.057Z,504.00
2023-04-10T09:33:41.033Z,506.00
2023-04-10T09:34:41.078Z,503.00
2023-04-10T09:35:41.132Z,503.00
2023-04-10T09:36:41.198Z,500.00
2023-04-10T09:37:41.236Z,502.00
2023-04-10T09:38:41.275Z,503.00
2023-04-10T09:39:41.324Z,502.00
2023-04-10T09:40:41.380Z,503.00
2023-04-10T09:41:41.426Z,503.00
2023-04-10T09:42:41.478Z,505.00
2023-04-10T09:43:41.532Z,507.00
2023-04-10T09:44:41.588Z,508.00
2023-04-10T09:45:41.626Z,511.00
2023-04-10T09:46:41.730Z,509.00
2023-04-10T09:47:41.779Z,507.00
2023-04-10T09:48:41.808Z,511.00
2023-04-10T09:49:41.830Z,511.00
2023-04-10T09:50:41.892Z,511.00
2023-04-10T09:51:41.941Z,513.00
2023-04-10T09:52:41.985Z,514.00
2023-04-10T09:53:42.037Z,514.00
2023-04-10T09:54:42.091Z,515.00
2023-04-10T09:55:42.146Z,513.00
2023-04-10T09:56:42.200Z,513.00
2023-04-10T09:57:42.258Z,511.00
2023-04-10T09:58:42.292Z,513.00
2023-04-10T09:59:43.070Z,513.00
2023-04-10T10:00:42.428Z,510.00
2023-04-10T10:01:42.503Z,513.00
2023-04-10T10:02:42.684Z,510.00
2023-04-10T10:03:42.606Z,508.00
2023-04-10T10:04:42.622Z,506.00
2023-04-10T10:05:42.641Z,506.00
2023-04-10T10:06:42.677Z,506.00
2023-04-10T10:07:42.725Z,504.00
2023-04-10T10:08:42.775Z,507.00
2023-04-10T10:09:42.827Z,510.00
2023-04-10T10:10:42.871Z,507.00
2023-04-10T10:11:42.919Z,508.00
2023-04-10T10:12:42.968Z,511.00
2023-04-10T10:13:43.022Z,511.00
2023-04-10T10:14:43.081Z,517.00
2023-04-10T10:15:43.118Z,518.00
2023-04-10T10:16:43.227Z,517.00
2023-04-10T10:17:43.281Z,517.00
2023-04-10T10:18:43.265Z,518.00
2023-04-10T10:19:43.308Z,518.00
2023-04-10T10:20:43.388Z,517.00
2023-04-10T10:21:43.409Z,520.00
2023-04-10T10:22:43.468Z,519.00
2023-04-10T10:23:43.533Z,519.00
2023-04-10T10:24:43.564Z,520.00
2023-04-10T10:25:43.611Z,519.00
2023-04-10T10:26:43.654Z,519.00
2023-04-10T10:27:43.702Z,522.00
2023-04-10T10:28:43.762Z,524.00
2023-04-10T10:29:43.813Z,524.00
2023-04-10T10:30:43.868Z,520.00
2023-04-10T10:31:43.934Z,522.00
2023-04-10T10:32:44.047Z,518.00
2023-04-10T10:33:44.014Z,518.00
2023-04-10T10:34:44.067Z,519.00
2023-04-10T10:35:44.107Z,518.00
2023-04-10T10:36:44.221Z,518.00
2023-04-10T10:37:44.194Z,518.00
2023-04-10T10:38:44.264Z,518.00
2023-04-10T10:39:44.281Z,517.00
2023-04-10T10:40:44.339Z,515.00
2023-04-10T10:41:44.416Z,514.00
2023-04-10T10:42:44.411Z,511.00
2023-04-10T10:43:44.509Z,515.00
2023-04-10T10:44:44.502Z,512.00
2023-04-10T10:45:44.558Z,515.00
2023-04-10T10:46:44.599Z,516.00
2023-04-10T10:47:44.687Z,516.00
2023-04-10T10:48:44.713Z,517.00
2023-04-10T10:49:44.720Z,517.00
2023-04-10T10:50:44.762Z,519.00
2023-04-10T10:51:44.803Z,518.00
2023-04-10T10:52:44.876Z,518.00
2023-04-10T10:53:44.908Z,518.00
2023-04-10T10:54:53.777Z,519.00
2023-04-10T10:55:44.930Z,520.00
2023-04-10T10:56:44.902Z,521.00
2023-04-10T10:57:44.896Z,521.00
2023-04-10T10:58:44.890Z,522.00
2023-04-10T10:59:44.890Z,525.00
2023-04-10T11:00:44.916Z,528.00
2023-04-10T11:01:44.943Z,524.00
2023-04-10T11:02:44.957Z,526.00
2023-04-10T11:03:44.969Z,526.00
2023-04-10T11:04:44.890Z,527.00
2023-04-10T11:05:44.867Z,526.00
2023-04-10T11:06:44.865Z,528.00
2023-04-10T11:07:44.859Z,523.00
2023-04-10T11:08:44.890Z,529.00
2023-04-10T11:09:44.840Z,528.00
2023-04-10T11:10:44.829Z,528.00
2023-04-10T11:11:44.819Z,529.00
2023-04-10T11:12:44.810Z,528.00
2023-04-10T11:13:44.808Z,528.00
2023-04-10T11:14:44.795Z,530.00
2023-04-10T11:15:44.784Z,531.00
2023-04-10T11:16:44.807Z,531.00
2023-04-10T11:17:44.790Z,531.00
2023-04-10T11:18:44.794Z,533.00
2023-04-10T11:19:44.758Z,531.00
2023-04-10T11:20:44.790Z,531.00
2023-04-10T11:21:44.747Z,533.00
2023-04-10T11:22:44.737Z,531.00
2023-04-10T11:23:44.732Z,533.00
2023-04-10T11:24:44.741Z,534.00
2023-04-10T11:25:44.768Z,536.00
2023-04-10T11:26:44.813Z,532.00
2023-04-10T11:27:45.048Z,533.00
2023-04-10T11:28:44.901Z,533.00
2023-04-10T11:29:44.955Z,533.00
2023-04-10T11:30:44.997Z,531.00
2023-04-10T11:31:45.132Z,531.00
2023-04-10T11:32:45.174Z,532.00
2023-04-10T11:33:45.147Z,533.00
2023-04-10T11:34:45.200Z,530.00
2023-04-10T11:35:45.279Z,534.00
2023-04-10T11:36:45.305Z,537.00
2023-04-10T11:37:45.358Z,537.00
2023-04-10T11:38:45.410Z,537.00
2023-04-10T11:39:45.452Z,537.00
2023-04-10T11:40:45.531Z,537.00
2023-04-10T11:41:45.564Z,536.00
2023-04-10T11:42:45.610Z,534.00
2023-04-10T11:43:45.640Z,534.00
2023-04-10T11:44:47.767Z,537.00
2023-04-10T11:45:45.797Z,537.00
2023-04-10T11:46:45.661Z,538.00
2023-04-10T11:47:45.681Z,538.00
2023-04-10T11:48:45.666Z,540.00
2023-04-10T11:49:45.651Z,540.00
2023-04-10T11:50:45.649Z,539.00
2023-04-10T11:51:45.636Z,536.00
2023-04-10T11:52:45.629Z,536.00
2023-04-10T11:53:45.619Z,538.00
2023-04-10T11:54:45.608Z,539.00
2023-04-10T11:55:45.609Z,542.00
2023-04-10T11:56:45.645Z,542.00
2023-04-10T11:57:45.621Z,542.00
2023-04-10T11:58:45.617Z,544.00
2023-04-10T11:59:45.611Z,544.00
2023-04-10T12:00:45.611Z,547.00
2023-04-10T12:01:45.611Z,544.00
2023-04-10T12:02:45.731Z,545.00
2023-04-10T12:03:45.714Z,545.00
2023-04-10T12:04:45.764Z,544.00
2023-04-10T12:05:45.562Z,547.00
2023-04-10T12:06:45.565Z,546.00
2023-04-10T12:07:45.557Z,546.00
2023-04-10T12:08:45.558Z,549.00
2023-04-10T12:09:45.556Z,545.00
2023-04-10T12:10:45.621Z,544.00
2023-04-10T12:11:45.659Z,546.00
2023-04-10T12:12:45.733Z,548.00
2023-04-10T12:13:45.759Z,545.00
2023-04-10T12:14:45.815Z,546.00
2023-04-10T12:15:45.900Z,546.00
2023-04-10T12:16:45.999Z,545.00
2023-04-10T12:17:45.967Z,545.00
2023-04-10T12:18:46.020Z,549.00
2023-04-10T12:19:46.078Z,550.00
2023-04-10T12:20:46.130Z,552.00
2023-04-10T12:21:46.196Z,553.00
2023-04-10T12:22:46.236Z,549.00
2023-04-10T12:23:46.280Z,549.00
2023-04-10T12:24:46.337Z,550.00
2023-04-10T12:25:46.383Z,551.00
2023-04-10T12:26:46.432Z,551.00
2023-04-10T12:27:46.484Z,552.00
2023-04-10T12:28:46.561Z,549.00